Terminal Aerodrome Forecast
Issued by NWS

Home | Current Version | Previous Version | Text Only | Print | Product List | Glossary On
Versions: 1 2 3 4 5 6 7 8 9 10 11 12
000
FTUS41 KPBZ 271135
TAFDUJ
TAF
KDUJ 271135Z 2712/2812 28005KT P6SM BKN035
     FM271400 28008KT 5SM -SHRASN BKN020
     FM271800 30012G22KT P6SM BKN025
     FM280000 36007KT P6SM BKN020=

USA.gov is the U.S. government's official web portal to all federal, state and local government web resources and services.